Time;durP1;ratioP1;P1;durP2;ratioP2;P2;SDS_P1;SDS_P2;PMS_P1;PMS_P2;Temp;Humidity;BMP_temperature;BMP_pressure;BME280_temperature;BME280_humidity;BME280_pressure;Samples;Min_cycle;Max_cycle;Signal;HPM_P1;HPM_P2
2021/05/30 00:01:54;;;;;;;;;;;;;;;24.21;51.64;101213.91;5016517;28;1458;-72
2021/05/30 00:04:19;;;;;;;;;;;;;;;24.21;51.15;101224.13;5014839;28;1820;-72
2021/05/30 00:06:45;;;;;;;;;;;;;;;24.21;51.04;101221.34;4995449;28;3279;-72
2021/05/30 00:09:11;;;;;;;;;;;;;;;24.20;51.58;101217.78;5013936;28;2128;-72
2021/05/30 00:11:36;;;;;;;;;;;;;;;24.21;50.92;101215.84;5012826;28;2635;-71
2021/05/30 00:14:02;;;;;;;;;;;;;;;24.20;51.34;101217.78;4995663;28;1660;-71
2021/05/30 00:16:28;;;;;;;;;;;;;;;24.21;50.97;101218.59;5011776;28;1699;-71
2021/05/30 00:18:53;;;;;;;;;;;;;;;24.21;51.21;101230.41;5021345;28;1692;-71
2021/05/30 00:21:18;;;;;;;;;;;;;;;24.21;50.92;101219.41;5016123;28;1785;-70
2021/05/30 00:23:44;;;;;;;;;;;;;;;24.21;50.80;101215.84;5016569;28;2485;-70
2021/05/30 00:26:09;;;;;;;;;;;;;;;24.21;50.86;101221.34;5017442;28;1882;-71
2021/05/30 00:28:34;;;;;;;;;;;;;;;24.20;51.34;101209.50;5016911;28;1549;-71
2021/05/30 00:31:00;;;;;;;;;;;;;;;24.21;51.17;101210.34;5016800;28;2220;-70
2021/05/30 00:33:25;;;;;;;;;;;;;;;24.21;50.94;101211.16;5018482;28;1603;-71
2021/05/30 00:35:50;;;;;;;;;;;;;;;24.20;50.97;101206.75;5014177;28;1503;-71
2021/05/30 00:38:15;;;;;;;;;;;;;;;24.20;51.07;101204.00;5016164;28;1497;-71
2021/05/30 00:40:41;;;;;;;;;;;;;;;24.19;51.18;101205.16;5014151;28;1651;-71
2021/05/30 00:43:07;;;;;;;;;;;;;;;24.20;51.10;101203.19;5013998;28;1464;-70
2021/05/30 00:45:32;;;;;;;;;;;;;;;24.20;51.15;101197.69;5015725;28;1941;-70
2021/05/30 00:47:57;;;;;;;;;;;;;;;24.20;51.36;101204.00;5016989;28;1636;-71
2021/05/30 00:50:23;;;;;;;;;;;;;;;24.19;51.25;101196.09;5015349;28;1517;-71
2021/05/30 00:52:48;;;;;;;;;;;;;;;24.19;51.10;101205.16;5016132;28;1496;-71
2021/05/30 00:55:14;;;;;;;;;;;;;;;24.19;51.32;101204.34;5019250;28;1631;-71
2021/05/30 00:57:39;;;;;;;;;;;;;;;24.20;51.10;101205.94;5013451;28;1449;-71
2021/05/30 01:00:06;;;;;;;;;;;;;;;24.20;51.00;101203.19;5016466;28;1534;-70
2021/05/30 01:02:32;;;;;;;;;;;;;;;24.19;50.96;101209.84;5032313;28;869;-70
2021/05/30 01:04:57;;;;;;;;;;;;;;;24.19;50.98;101207.91;5021599;28;1678;-72
2021/05/30 01:07:22;;;;;;;;;;;;;;;24.18;51.27;101202.69;5012674;28;1969;-71
2021/05/30 01:09:48;;;;;;;;;;;;;;;24.18;51.29;101203.50;5012832;28;835;-71
2021/05/30 01:12:14;;;;;;;;;;;;;;;24.17;50.87;101204.63;5012554;28;872;-71
2021/05/30 01:14:40;;;;;;;;;;;;;;;24.17;51.13;101203.84;5011981;28;2201;-71
2021/05/30 01:17:06;;;;;;;;;;;;;;;24.17;51.14;101206.59;5012205;28;878;-71
2021/05/30 01:19:32;;;;;;;;;;;;;;;24.16;51.32;101200.25;5010380;28;2079;-71
2021/05/30 01:21:59;;;;;;;;;;;;;;;24.18;51.30;101202.69;5010025;28;1818;-71
2021/05/30 01:24:24;;;;;;;;;;;;;;;24.18;51.10;101197.19;5012150;28;1003;-71
2021/05/30 01:26:49;;;;;;;;;;;;;;;24.17;51.25;101201.06;4993938;28;2036;-71
2021/05/30 01:29:15;;;;;;;;;;;;;;;24.18;51.05;101199.94;5012060;28;894;-71
2021/05/30 01:31:40;;;;;;;;;;;;;;;24.17;51.05;101196.38;5011772;28;1042;-70
2021/05/30 01:34:05;;;;;;;;;;;;;;;24.18;50.99;101194.44;5011543;28;1594;-70
2021/05/30 01:36:31;;;;;;;;;;;;;;;24.17;50.95;101188.13;5011501;28;1808;-70
2021/05/30 01:38:56;;;;;;;;;;;;;;;24.17;50.95;101192.81;5012316;28;823;-70
2021/05/30 01:41:22;;;;;;;;;;;;;;;24.18;51.21;101191.69;5012068;28;844;-71
2021/05/30 01:43:47;;;;;;;;;;;;;;;24.18;50.77;101188.94;5011470;28;1820;-70
2021/05/30 01:46:12;;;;;;;;;;;;;;;24.18;51.08;101194.44;5011686;28;1878;-71
2021/05/30 01:48:38;;;;;;;;;;;;;;;24.17;51.19;101204.63;5011539;28;1728;-71
2021/05/30 01:51:03;;;;;;;;;;;;;;;24.16;51.24;101199.44;5011217;28;2001;-71
2021/05/30 01:53:37;;;;;;;;;;;;;;;24.17;51.21;101207.38;5010997;28;2478;-70
2021/05/30 01:58:28;;;;;;;;;;;;;;;24.16;51.43;101200.25;5011765;28;873;-71
2021/05/30 02:00:53;;;;;;;;;;;;;;;24.16;51.19;101208.50;5011589;28;1274;-71
2021/05/30 02:03:19;;;;;;;;;;;;;;;24.15;51.33;101203.28;5011589;28;830;-71
2021/05/30 02:05:54;;;;;;;;;;;;;;;24.16;51.46;101202.19;5011434;28;1910;-71
2021/05/30 02:08:20;;;;;;;;;;;;;;;24.16;51.53;101200.25;5011494;28;799;-71
2021/05/30 02:10:45;;;;;;;;;;;;;;;24.16;51.36;101203.00;5011327;28;854;-71
2021/05/30 02:13:12;;;;;;;;;;;;;;;24.17;51.32;101196.38;5011621;28;866;-71
2021/05/30 02:15:37;;;;;;;;;;;;;;;24.17;51.41;101195.56;5011218;28;862;-71
2021/05/30 02:18:04;;;;;;;;;;;;;;;24.15;51.48;101187.63;5011333;28;1176;-73
2021/05/30 02:20:34;;;;;;;;;;;;;;;24.16;51.32;101191.97;5009966;28;1257;-72
2021/05/30 02:22:59;;;;;;;;;;;;;;;24.16;51.49;101194.75;4993709;28;1287;-72
2021/05/30 02:25:25;;;;;;;;;;;;;;;24.16;51.09;101199.44;5011344;28;2003;-70
2021/05/30 02:27:51;;;;;;;;;;;;;;;24.16;51.27;101196.69;5011522;28;1265;-70
2021/05/30 02:30:16;;;;;;;;;;;;;;;24.16;51.38;101196.69;5010868;28;1192;-70
2021/05/30 02:32:42;;;;;;;;;;;;;;;24.16;51.46;101196.69;5011005;28;945;-70
2021/05/30 02:35:07;;;;;;;;;;;;;;;24.16;51.25;101200.25;4993408;28;883;-69
2021/05/30 02:37:32;;;;;;;;;;;;;;;24.15;51.40;101197.78;5011242;28;885;-69
2021/05/30 02:39:58;;;;;;;;;;;;;;;24.16;51.32;101200.25;5010991;28;897;-71
2021/05/30 02:42:23;;;;;;;;;;;;;;;24.15;51.32;101195.88;5011055;28;846;-71
2021/05/30 02:44:48;;;;;;;;;;;;;;;24.15;51.26;101198.63;5011200;28;866;-72
2021/05/30 02:47:13;;;;;;;;;;;;;;;24.15;51.09;101201.38;5010806;28;1925;-72
2021/05/30 02:49:39;;;;;;;;;;;;;;;24.16;51.12;101202.19;5010723;28;1281;-72
2021/05/30 02:52:04;;;;;;;;;;;;;;;24.15;51.61;101195.88;5010937;28;899;-72
2021/05/30 02:54:30;;;;;;;;;;;;;;;24.17;51.18;101195.56;5010795;28;869;-70
2021/05/30 02:56:55;;;;;;;;;;;;;;;24.16;51.03;101197.50;5011029;28;886;-70
2021/05/30 02:59:20;;;;;;;;;;;;;;;24.16;51.18;101202.19;5010754;28;1262;-70
2021/05/30 03:01:45;;;;;;;;;;;;;;;24.15;51.49;101209.63;5010653;28;914;-70
2021/05/30 03:04:11;;;;;;;;;;;;;;;24.16;51.08;101215.94;5011075;28;1002;-70
2021/05/30 03:06:36;;;;;;;;;;;;;;;24.15;51.17;101211.56;5010603;28;1938;-70
2021/05/30 03:09:02;;;;;;;;;;;;;;;24.15;51.33;101209.63;5014203;28;1176;-70
2021/05/30 03:11:28;;;;;;;;;;;;;;;24.15;51.31;101211.56;5030480;28;858;-70
2021/05/30 03:13:53;;;;;;;;;;;;;;;24.15;51.03;101203.28;5030172;28;815;-70
2021/05/30 03:16:19;;;;;;;;;;;;;;;24.15;50.80;101208.78;5030306;28;834;-71
2021/05/30 03:18:45;;;;;;;;;;;;;;;24.17;51.05;101212.09;5030434;28;854;-71
2021/05/30 03:21:10;;;;;;;;;;;;;;;24.16;51.50;101199.44;5030387;28;889;-71
2021/05/30 03:23:36;;;;;;;;;;;;;;;24.17;51.71;101195.56;5025907;28;2089;-68
2021/05/30 03:26:02;;;;;;;;;;;;;;;24.15;51.04;101198.63;5010440;28;1870;-73
2021/05/30 03:28:27;;;;;;;;;;;;;;;24.02;51.29;101202.19;5010556;28;992;-75
2021/05/30 03:30:52;;;;;;;;;;;;;;;23.92;49.19;101193.03;5012251;28;866;-78
2021/05/30 03:33:17;;;;;;;;;;;;;;;23.75;51.55;101194.75;5011686;28;884;-72
2021/05/30 03:35:45;;;;;;;;;;;;;;;23.65;52.23;101195.75;5011396;28;929;-81
2021/05/30 03:38:12;;;;;;;;;;;;;;;23.76;50.58;101193.59;4993976;28;898;-76
2021/05/30 03:40:48;;;;;;;;;;;;;;;23.63;50.42;101192.47;5010213;28;1679;-77
2021/05/30 03:43:14;;;;;;;;;;;;;;;23.60;50.49;101199.38;4991815;28;1975;-77
2021/05/30 03:45:40;;;;;;;;;;;;;;;23.56;50.57;101192.84;4993507;28;1902;-77
2021/05/30 03:48:06;;;;;;;;;;;;;;;23.52;50.39;101202.84;5014326;28;1320;-77
2021/05/30 03:50:31;;;;;;;;;;;;;;;23.48;50.38;101194.41;5000156;28;1606;-77
2021/05/30 03:52:57;;;;;;;;;;;;;;;23.47;50.58;101202.94;5012709;28;1409;-77
2021/05/30 03:55:22;;;;;;;;;;;;;;;23.33;50.33;101181.72;5011609;28;1473;-77
2021/05/30 03:57:47;;;;;;;;;;;;;;;23.42;50.41;101201.09;5011907;28;1505;-77
2021/05/30 04:00:14;;;;;;;;;;;;;;;23.37;50.32;101205.88;5012061;28;1246;-77
2021/05/30 04:02:40;;;;;;;;;;;;;;;23.33;50.39;101206.47;5012191;28;1258;-77
2021/05/30 04:05:05;;;;;;;;;;;;;;;23.38;50.97;101202.84;5013037;28;906;-76
2021/05/30 04:07:33;;;;;;;;;;;;;;;23.50;50.85;101202.31;5012729;28;1910;-74
2021/05/30 04:10:06;;;;;;;;;;;;;;;23.53;50.52;101197.03;5009244;28;1766;-73
2021/05/30 04:12:31;;;;;;;;;;;;;;;23.53;50.60;101196.22;5011483;28;925;-73
2021/05/30 04:14:57;;;;;;;;;;;;;;;23.54;50.34;101203.34;4994917;28;1299;-74
2021/05/30 04:17:22;;;;;;;;;;;;;;;23.61;51.03;101211.22;5011823;28;791;-74
2021/05/30 04:19:47;;;;;;;;;;;;;;;23.67;51.54;101218.25;5011473;28;902;-74
2021/05/30 04:22:13;;;;;;;;;;;;;;;23.71;51.93;101211.03;5003115;28;783;-73
2021/05/30 04:24:38;;;;;;;;;;;;;;;23.73;52.12;101204.09;5006448;28;1704;-73
2021/05/30 04:27:03;;;;;;;;;;;;;;;23.76;52.48;101210.91;5000354;28;1879;-74
2021/05/30 04:29:29;;;;;;;;;;;;;;;23.78;52.71;101203.19;5000759;28;861;-73
2021/05/30 04:31:54;;;;;;;;;;;;;;;23.80;52.75;101200.16;5000890;28;795;-74
2021/05/30 04:34:19;;;;;;;;;;;;;;;23.82;52.84;101204.22;5000894;28;819;-73
2021/05/30 04:36:45;;;;;;;;;;;;;;;23.85;53.04;101203.63;5000641;28;945;-75
2021/05/30 04:39:10;;;;;;;;;;;;;;;23.88;53.32;101203.00;5000421;28;1697;-78
2021/05/30 04:41:35;;;;;;;;;;;;;;;23.93;53.45;101189.16;5000283;28;784;-77
2021/05/30 04:44:01;;;;;;;;;;;;;;;23.96;53.50;101200.66;5000862;28;799;-72
2021/05/30 04:46:26;;;;;;;;;;;;;;;23.99;53.81;101202.81;5002268;28;1871;-75
2021/05/30 04:48:51;;;;;;;;;;;;;;;24.04;54.23;101208.19;5004214;28;910;-69
2021/05/30 04:51:16;;;;;;;;;;;;;;;24.07;54.70;101202.09;5003506;28;1107;-74
2021/05/30 04:53:43;;;;;;;;;;;;;;;23.78;55.51;101159.19;5001977;28;2047;-70
2021/05/30 04:56:09;;;;;;;;;;;;;;;24.10;55.39;101201.47;5010170;28;1729;-71
2021/05/30 04:58:35;;;;;;;;;;;;;;;24.13;55.57;101204.44;5023661;28;1681;-70
2021/05/30 05:01:04;;;;;;;;;;;;;;;24.13;55.73;101204.44;5008441;28;1425;-74
2021/05/30 05:03:30;;;;;;;;;;;;;;;24.16;55.70;101204.94;5003809;28;1171;-74
2021/05/30 05:05:55;;;;;;;;;;;;;;;24.15;55.69;101204.13;5003591;28;1961;-75
2021/05/30 05:08:21;;;;;;;;;;;;;;;24.08;53.48;101210.03;5002779;28;1749;-74
2021/05/30 05:10:47;;;;;;;;;;;;;;;24.03;52.90;101212.09;5003279;28;1112;-74
2021/05/30 05:13:13;;;;;;;;;;;;;;;24.01;51.97;101215.16;5003226;28;1382;-76
2021/05/30 05:15:38;;;;;;;;;;;;;;;24.07;53.24;101215.88;5014693;28;1604;-69
2021/05/30 05:18:17;;;;;;;;;;;;;;;24.16;53.79;101213.19;5019738;28;1223;-79
2021/05/30 05:20:43;;;;;;;;;;;;;;;24.15;53.17;101215.13;5018909;28;1247;-74
2021/05/30 05:23:10;;;;;;;;;;;;;;;24.13;54.44;101207.19;5018860;28;1267;-72
2021/05/30 05:25:36;;;;;;;;;;;;;;;24.12;52.88;101211.03;5017573;28;1871;-74
2021/05/30 05:28:04;;;;;;;;;;;;;;;24.09;52.03;101211.66;5020480;28;1638;-74
2021/05/30 05:30:30;;;;;;;;;;;;;;;24.02;51.74;101222.25;5021236;28;1361;-73
2021/05/30 05:32:56;;;;;;;;;;;;;;;24.05;51.66;101223.59;5016944;28;1856;-77
2021/05/30 05:35:21;;;;;;;;;;;;;;;24.03;50.88;101228.59;5012676;28;885;-75
2021/05/30 05:37:47;;;;;;;;;;;;;;;24.04;51.10;101228.28;5003080;28;950;-72
2021/05/30 05:40:12;;;;;;;;;;;;;;;24.01;50.65;101230.84;5002815;28;1247;-75
2021/05/30 05:42:38;;;;;;;;;;;;;;;24.01;50.38;101234.41;5002925;28;1016;-75
2021/05/30 05:45:04;;;;;;;;;;;;;;;23.99;50.03;101231.16;5002724;28;1580;-76
2021/05/30 05:47:29;;;;;;;;;;;;;;;23.99;50.13;101235.84;4995157;28;1886;-74
2021/05/30 05:49:54;;;;;;;;;;;;;;;24.00;50.08;101231.94;4994066;28;1757;-73
2021/05/30 05:52:20;;;;;;;;;;;;;;;24.00;50.30;101235.50;4975511;28;1900;-73
2021/05/30 05:54:45;;;;;;;;;;;;;;;23.99;50.37;101239.41;5000185;28;1458;-74
2021/05/30 05:57:10;;;;;;;;;;;;;;;24.02;50.91;101232.47;4998060;28;1364;-73
2021/05/30 05:59:35;;;;;;;;;;;;;;;24.06;51.03;101239.78;4996441;28;1682;-73
2021/05/30 06:02:01;;;;;;;;;;;;;;;24.07;51.01;101241.44;4997798;28;1576;-74
2021/05/30 06:04:26;;;;;;;;;;;;;;;24.07;51.12;101237.88;4997404;28;2237;-74
2021/05/30 06:06:51;;;;;;;;;;;;;;;24.09;51.13;101241.13;4997171;28;2015;-71
2021/05/30 06:09:17;;;;;;;;;;;;;;;24.12;51.50;101241.31;4978335;28;1487;-71
2021/05/30 06:11:43;;;;;;;;;;;;;;;24.18;52.22;101241.22;4998274;28;1543;-77
2021/05/30 06:14:08;;;;;;;;;;;;;;;24.20;53.30;101237.03;4997910;28;1699;-74
2021/05/30 07:59:03;;;;;;;;;;;;;;;24.37;47.70;101263.97;5076674;27;1684;-75
2021/05/30 08:01:28;;;;;;;;;;;;;;;24.44;48.57;101263.53;5066789;28;2180;-71
2021/05/30 08:03:54;;;;;;;;;;;;;;;24.32;48.36;101258.53;5067108;28;969;-70
2021/05/30 08:06:32;;;;;;;;;;;;;;;24.32;47.68;101261.28;5067402;28;874;-72
2021/05/30 08:09:02;;;;;;;;;;;;;;;24.11;47.93;101266.41;5044917;28;1229;-72
2021/05/30 08:11:28;;;;;;;;;;;;;;;24.06;47.51;101263.75;5048938;28;1429;-72
2021/05/30 08:13:54;;;;;;;;;;;;;;;23.98;47.07;101259.75;5044071;28;884;-72
2021/05/30 08:16:19;;;;;;;;;;;;;;;23.95;46.90;101265.09;5044071;28;849;-72
2021/05/30 08:18:45;;;;;;;;;;;;;;;23.93;46.88;101266.19;5042818;28;1967;-72
2021/05/30 08:21:10;;;;;;;;;;;;;;;23.91;46.75;101267.63;5043240;28;802;-72
2021/05/30 08:23:38;;;;;;;;;;;;;;;23.95;47.03;101265.91;5044108;28;803;-72
2021/05/30 08:26:03;;;;;;;;;;;;;;;23.98;47.38;101272.72;5046031;28;945;-72
2021/05/30 08:28:29;;;;;;;;;;;;;;;23.96;47.60;101272.19;5045960;28;806;-72
2021/05/30 08:30:54;;;;;;;;;;;;;;;23.93;46.99;101268.94;5045952;28;794;-72
2021/05/30 08:33:19;;;;;;;;;;;;;;;23.90;47.59;101275.06;5046115;28;862;-72
2021/05/30 08:35:45;;;;;;;;;;;;;;;23.92;47.16;101270.06;5046694;28;933;-72
2021/05/30 08:38:10;;;;;;;;;;;;;;;23.91;46.85;101264.88;5046531;28;1932;-72
2021/05/30 08:40:36;;;;;;;;;;;;;;;23.95;47.34;101270.59;5046686;28;1317;-72
2021/05/30 08:43:01;;;;;;;;;;;;;;;23.93;47.74;101274.44;5046649;28;903;-72
2021/05/30 08:45:26;;;;;;;;;;;;;;;23.93;47.39;101274.44;5046240;28;909;-72
2021/05/30 08:47:53;;;;;;;;;;;;;;;23.96;47.60;101275.75;5045130;28;1366;-72
2021/05/30 08:50:18;;;;;;;;;;;;;;;23.93;48.23;101270.88;5046511;28;805;-72
2021/05/30 08:52:44;;;;;;;;;;;;;;;23.91;47.98;101276.69;5044955;28;1232;-72
2021/05/30 08:55:09;;;;;;;;;;;;;;;23.90;48.32;101279.72;5044846;28;1193;-72
2021/05/30 08:57:35;;;;;;;;;;;;;;;23.91;48.16;101282.19;5045943;28;1906;-72
2021/05/30 09:00:01;;;;;;;;;;;;;;;23.85;48.08;101277.09;5045983;28;930;-72
2021/05/30 09:02:27;;;;;;;;;;;;;;;23.83;47.91;101279.31;5045803;28;814;-72
2021/05/30 09:04:53;;;;;;;;;;;;;;;23.80;48.11;101277.16;5045969;28;885;-71
2021/05/30 09:07:36;;;;;;;;;;;;;;;23.80;47.87;101277.97;5046100;28;812;-72
2021/05/30 09:10:03;;;;;;;;;;;;;;;23.80;48.04;101280.72;5034962;28;887;-72
2021/05/30 09:12:34;;;;;;;;;;;;;;;23.80;48.00;101274.41;5032516;28;931;-72
2021/05/30 09:15:02;;;;;;;;;;;;;;;23.80;48.40;101274.41;5032563;28;798;-72
2021/05/30 09:17:28;;;;;;;;;;;;;;;23.76;48.46;101279.69;5032368;28;1875;-72
2021/05/30 09:19:54;;;;;;;;;;;;;;;23.76;48.28;101273.38;5032459;28;913;-72
2021/05/30 09:22:22;;;;;;;;;;;;;;;23.76;48.28;101276.13;5032423;28;818;-72
2021/05/30 09:24:48;;;;;;;;;;;;;;;23.77;48.24;101275.84;5031960;28;849;-72
2021/05/30 09:27:13;;;;;;;;;;;;;;;23.78;48.11;101273.91;5032665;28;942;-72
2021/05/30 09:29:38;;;;;;;;;;;;;;;23.82;48.40;101278.50;5032501;28;788;-72
2021/05/30 09:32:04;;;;;;;;;;;;;;;23.86;48.76;101275.97;5032109;28;925;-72
2021/05/30 09:34:31;;;;;;;;;;;;;;;23.89;48.54;101275.38;5032528;28;1147;-72
2021/05/30 09:36:57;;;;;;;;;;;;;;;23.93;48.65;101268.13;5032503;28;1957;-72
2021/05/30 09:39:40;;;;;;;;;;;;;;;23.92;48.49;101267.31;5032174;28;882;-72
2021/05/30 09:42:25;;;;;;;;;;;;;;;23.92;48.42;101264.56;5032149;28;820;-72
2021/05/30 09:45:10;;;;;;;;;;;;;;;23.96;48.60;101261.19;5031694;28;831;-72
2021/05/30 09:47:37;;;;;;;;;;;;;;;24.03;48.13;101258.88;5032008;28;779;-72
2021/05/30 09:50:06;;;;;;;;;;;;;;;24.03;48.55;101256.94;5031913;28;873;-72
2021/05/30 09:52:40;;;;;;;;;;;;;;;23.97;48.39;101257.34;5031933;28;1219;-72
2021/05/30 09:55:14;;;;;;;;;;;;;;;23.99;48.38;101258.66;5031952;28;790;-72
2021/05/30 09:57:40;;;;;;;;;;;;;;;23.98;48.99;101251.50;5030250;28;1906;-72
2021/05/30 10:00:19;;;;;;;;;;;;;;;24.01;48.35;101252.84;5031294;28;850;-72
2021/05/30 10:02:44;;;;;;;;;;;;;;;24.00;48.62;101245.72;5031505;28;893;-72
2021/05/30 10:05:10;;;;;;;;;;;;;;;24.01;48.41;101239.91;5031694;28;928;-72
2021/05/30 10:07:35;;;;;;;;;;;;;;;24.02;48.73;101241.53;5031520;28;886;-72
2021/05/30 10:10:01;;;;;;;;;;;;;;;24.07;48.44;101235.94;5031605;28;810;-72
2021/05/30 10:12:26;;;;;;;;;;;;;;;24.05;48.34;101229.91;5031512;28;933;-72
2021/05/30 10:14:52;;;;;;;;;;;;;;;24.13;48.31;101231.16;5031179;28;850;-72
2021/05/30 10:17:18;;;;;;;;;;;;;;;24.07;48.41;101226.88;5031170;28;1874;-72
2021/05/30 10:19:45;;;;;;;;;;;;;;;24.03;48.62;101231.34;5031606;28;806;-72
2021/05/30 10:22:11;;;;;;;;;;;;;;;23.99;48.67;101228.38;5030572;28;806;-72
2021/05/30 10:24:40;;;;;;;;;;;;;;;24.02;48.01;101229.72;5031269;28;802;-72
2021/05/30 10:27:09;;;;;;;;;;;;;;;24.04;48.37;101224.72;5031180;28;794;-72
2021/05/30 10:29:34;;;;;;;;;;;;;;;24.04;48.19;101228.28;5030918;28;799;-72
2021/05/30 10:32:13;;;;;;;;;;;;;;;24.03;48.43;101223.09;5031400;28;778;-73
2021/05/30 10:34:38;;;;;;;;;;;;;;;24.04;48.30;101217.25;5031182;28;815;-72
2021/05/30 10:37:09;;;;;;;;;;;;;;;24.05;48.09;101218.09;5030970;28;1933;-72
2021/05/30 10:39:35;;;;;;;;;;;;;;;24.07;48.15;101219.41;5031221;28;791;-72
2021/05/30 10:42:17;;;;;;;;;;;;;;;24.02;48.11;101219.50;5030792;28;838;-72
2021/05/30 10:44:52;;;;;;;;;;;;;;;24.01;48.35;101217.09;5029663;28;1277;-72
2021/05/30 10:47:17;;;;;;;;;;;;;;;23.98;48.26;101223.19;5030884;28;842;-72
2021/05/30 10:50:01;;;;;;;;;;;;;;;23.96;47.33;101222.69;5030937;28;880;-72
2021/05/30 10:52:37;;;;;;;;;;;;;;;23.88;46.16;101221.44;5030655;28;839;-72
2021/05/30 10:55:09;;;;;;;;;;;;;;;23.86;46.85;101221.75;5029451;28;1190;-72
2021/05/30 10:57:47;;;;;;;;;;;;;;;23.87;46.87;101217.88;5030177;28;1906;-72
2021/05/30 11:00:18;;;;;;;;;;;;;;;23.90;46.31;101211.78;5030645;28;831;-72
2021/05/30 11:03:06;;;;;;;;;;;;;;;23.92;47.09;101203.22;5030563;28;784;-72
2021/05/30 11:05:50;;;;;;;;;;;;;;;23.92;46.61;101208.72;5030488;28;850;-72
2021/05/30 11:08:42;;;;;;;;;;;;;;;23.92;46.97;101205.97;5030385;28;813;-72
2021/05/30 11:11:21;;;;;;;;;;;;;;;23.90;46.69;101202.69;5029547;28;1210;-72
2021/05/30 11:13:49;;;;;;;;;;;;;;;23.90;47.16;101213.69;5029010;28;1493;-72
2021/05/30 11:16:16;;;;;;;;;;;;;;;23.93;47.08;101210.34;5030320;28;818;-72
2021/05/30 11:18:41;;;;;;;;;;;;;;;23.91;46.85;101216.16;5030220;28;1882;-72
2021/05/30 11:21:06;;;;;;;;;;;;;;;23.92;47.06;101217.81;5030327;28;980;-72
2021/05/30 11:23:32;;;;;;;;;;;;;;;23.93;46.85;101222.16;5030148;28;874;-72
2021/05/30 11:25:57;;;;;;;;;;;;;;;23.88;46.07;101219.50;5029841;28;1071;-72
2021/05/30 11:28:27;;;;;;;;;;;;;;;23.85;45.54;101220.13;5030160;28;814;-72
2021/05/30 11:30:53;;;;;;;;;;;;;;;23.85;45.65;101227.56;5030089;28;886;-72
2021/05/30 11:33:21;;;;;;;;;;;;;;;23.86;45.30;101207.19;5029785;28;815;-72
2021/05/30 11:35:48;;;;;;;;;;;;;;;23.85;45.37;101209.13;5030022;28;913;-72
2021/05/30 11:38:13;;;;;;;;;;;;;;;23.85;45.39;101208.31;5029888;28;1874;-72
2021/05/30 11:40:39;;;;;;;;;;;;;;;23.88;45.73;101207.69;5029737;28;791;-72
2021/05/30 11:43:18;;;;;;;;;;;;;;;23.85;45.51;101206.38;5029953;28;897;-72
2021/05/30 11:45:45;;;;;;;;;;;;;;;23.85;45.69;101213.81;5028672;28;1424;-72
2021/05/30 11:48:20;;;;;;;;;;;;;;;23.87;45.54;101206.06;5030147;28;826;-72
2021/05/30 11:50:53;;;;;;;;;;;;;;;23.84;45.80;101198.41;5029849;28;782;-72
2021/05/30 11:53:28;;;;;;;;;;;;;;;23.84;45.56;101204.72;5029845;28;944;-72
2021/05/30 11:55:54;;;;;;;;;;;;;;;23.86;45.95;101210.75;5030056;28;874;-72
2021/05/30 11:58:20;;;;;;;;;;;;;;;23.84;45.00;101218.47;5029931;28;1914;-72
2021/05/30 12:00:45;;;;;;;;;;;;;;;23.80;44.54;101216.66;5029787;28;872;-72
2021/05/30 12:03:12;;;;;;;;;;;;;;;23.80;44.72;101208.41;5029725;28;1035;-72
2021/05/30 12:05:37;;;;;;;;;;;;;;;23.72;44.76;101216.22;5029755;28;823;-72
2021/05/30 12:08:18;;;;;;;;;;;;;;;23.73;45.29;101212.34;5029602;28;842;-72
2021/05/30 12:10:56;;;;;;;;;;;;;;;23.75;45.32;101214.78;5029527;28;842;-72
2021/05/30 12:13:29;;;;;;;;;;;;;;;23.76;45.44;101215.59;5039100;28;1323;-72
2021/05/30 12:15:55;;;;;;;;;;;;;;;23.81;45.37;101208.09;5040327;28;1275;-72
2021/05/30 12:18:21;;;;;;;;;;;;;;;23.77;45.47;101198.84;5049807;28;1886;-72
2021/05/30 12:20:47;;;;;;;;;;;;;;;23.77;45.61;101192.50;5050097;28;874;-72
2021/05/30 12:23:14;;;;;;;;;;;;;;;23.80;45.90;101195.47;5049210;28;1048;-72
2021/05/30 12:25:50;;;;;;;;;;;;;;;23.80;45.84;101191.91;5049174;28;1268;-72
2021/05/30 12:28:15;;;;;;;;;;;;;;;23.81;46.17;101196.28;5048155;28;1206;-72
2021/05/30 12:30:40;;;;;;;;;;;;;;;23.77;46.04;101200.75;5049506;28;1029;-72
2021/05/30 12:33:06;;;;;;;;;;;;;;;23.74;46.28;101193.91;5049508;28;893;-72
2021/05/30 12:35:45;;;;;;;;;;;;;;;23.75;46.27;101201.03;5049574;28;897;-72
2021/05/30 12:38:11;;;;;;;;;;;;;;;23.71;46.16;101200.03;5037460;28;1940;-72
2021/05/30 12:40:37;;;;;;;;;;;;;;;23.75;46.67;101189.22;5031143;28;1346;-72
2021/05/30 12:43:02;;;;;;;;;;;;;;;23.71;46.27;101184.34;5027772;28;1148;-72
2021/05/30 12:45:27;;;;;;;;;;;;;;;23.69;46.31;101189.31;5031383;28;1535;-72
2021/05/30 12:47:53;;;;;;;;;;;;;;;23.69;46.52;101186.56;5032300;28;1349;-72
2021/05/30 12:50:19;;;;;;;;;;;;;;;23.67;46.68;101185.25;5031775;28;877;-72
2021/05/30 12:52:46;;;;;;;;;;;;;;;23.68;46.90;101175.88;5031983;28;790;-72
2021/05/30 12:55:12;;;;;;;;;;;;;;;23.69;46.78;101175.56;5031972;28;832;-72
2021/05/30 12:57:56;;;;;;;;;;;;;;;23.68;47.10;101179.44;5033280;28;2894;-72
2021/05/30 13:00:25;;;;;;;;;;;;;;;23.67;47.51;101188.00;5039133;28;2544;-72
2021/05/30 13:03:01;;;;;;;;;;;;;;;23.69;47.45;101189.31;5033794;28;2364;-72
2021/05/30 13:05:36;;;;;;;;;;;;;;;23.72;47.88;101204.38;5036082;28;1319;-72
2021/05/30 13:08:20;;;;;;;;;;;;;;;23.72;48.11;101183.22;5043884;28;1411;-72
2021/05/30 13:10:52;;;;;;;;;;;;;;;23.70;48.34;101190.13;5045403;28;1633;-72
2021/05/30 13:13:25;;;;;;;;;;;;;;;23.70;48.52;101190.97;5034333;28;1574;-72
2021/05/30 13:15:50;;;;;;;;;;;;;;;23.68;48.72;101186.88;5046192;28;2684;-72
2021/05/30 13:18:15;;;;;;;;;;;;;;;23.70;48.83;101181.88;5045873;28;1965;-73
2021/05/30 13:20:44;;;;;;;;;;;;;;;23.70;49.00;101190.97;5049834;28;1584;-72
2021/05/30 13:23:17;;;;;;;;;;;;;;;23.71;48.63;101197.28;5050790;28;847;-72
2021/05/30 13:25:49;;;;;;;;;;;;;;;23.67;48.53;101191.56;5050954;28;1428;-72
2021/05/30 13:28:28;;;;;;;;;;;;;;;23.69;48.50;101197.56;5052670;28;866;-73
2021/05/30 13:30:56;;;;;;;;;;;;;;;23.70;48.24;101177.22;5052167;28;823;-72
2021/05/30 13:33:22;;;;;;;;;;;;;;;23.71;48.17;101178.81;5052328;28;830;-72
2021/05/30 13:35:49;;;;;;;;;;;;;;;23.63;47.23;101182.28;5052041;28;850;-72
2021/05/30 13:38:14;;;;;;;;;;;;;;;23.61;46.94;101189.22;5051684;28;1938;-72
2021/05/30 13:40:42;;;;;;;;;;;;;;;23.61;46.66;101178.22;5052055;28;810;-72
2021/05/30 13:43:08;;;;;;;;;;;;;;;23.57;46.72;101175.25;5051938;28;844;-72
2021/05/30 13:45:33;;;;;;;;;;;;;;;23.56;46.42;101172.81;5046572;28;1271;-72
2021/05/30 13:47:58;;;;;;;;;;;;;;;23.56;46.40;101173.63;5031976;28;939;-72
2021/05/30 13:50:24;;;;;;;;;;;;;;;23.61;46.50;101175.47;5031413;28;1305;-72
2021/05/30 13:52:49;;;;;;;;;;;;;;;23.59;46.21;101163.97;5033623;28;1238;-72
2021/05/30 13:55:15;;;;;;;;;;;;;;;23.46;46.34;101169.16;5039809;28;977;-72
2021/05/30 13:57:40;;;;;;;;;;;;;;;23.42;46.37;101162.63;5031670;28;1906;-72
2021/05/30 14:00:06;;;;;;;;;;;;;;;23.42;46.32;101159.88;5034210;28;1290;-72
2021/05/30 14:02:31;;;;;;;;;;;;;;;23.42;46.24;101153.53;5034983;28;1534;-72
2021/05/30 14:04:56;;;;;;;;;;;;;;;23.38;46.23;101144.28;5047201;28;1172;-72
2021/05/30 14:07:22;;;;;;;;;;;;;;;23.44;46.02;101154.88;5040268;28;1159;-72
2021/05/30 14:09:47;;;;;;;;;;;;;;;23.49;46.22;101152.03;5045281;28;1315;-72
2021/05/30 14:12:13;;;;;;;;;;;;;;;23.50;46.45;101147.34;5038311;28;1334;-72
2021/05/30 14:14:38;;;;;;;;;;;;;;;23.50;46.23;101144.59;5034136;28;1490;-72
2021/05/30 14:17:04;;;;;;;;;;;;;;;23.53;46.14;101135.75;5030972;28;1933;-72
2021/05/30 14:19:29;;;;;;;;;;;;;;;23.53;46.24;101139.31;5030828;28;1281;-72
2021/05/30 14:21:54;;;;;;;;;;;;;;;23.46;46.72;101138.91;5030726;28;1273;-72
2021/05/30 14:24:19;;;;;;;;;;;;;;;23.49;46.93;101135.53;5030970;28;1312;-72
2021/05/30 14:26:45;;;;;;;;;;;;;;;23.51;46.68;101127.78;5030217;28;1473;-72
2021/05/30 14:29:10;;;;;;;;;;;;;;;23.48;46.59;101136.66;5031152;28;862;-72
2021/05/30 14:31:35;;;;;;;;;;;;;;;23.45;46.37;101134.50;5031148;28;927;-72
2021/05/30 14:34:02;;;;;;;;;;;;;;;23.42;46.80;101129.63;5031088;28;1004;-72
2021/05/30 14:36:27;;;;;;;;;;;;;;;23.44;46.71;101127.41;5030680;28;925;-72